This is the latest recevied weather packets stored in our database for station/object KA7KDX-4. If no packets are shown the sender has not sent any weather packets the latest 1 day(s).
| Time | Temp. | Humidity | Pressure | Rain* | Wind** | Luminosity | Snow |
|---|---|---|---|---|---|---|---|
| 1778081706 | 11.67° C | 38% | 1016.7 hPa | 0 mm | - | - | - |
| 1778081406 | 11.67° C | 38% | 1016.6 hPa | 0 mm | - | - | - |
| 1778081106 | 11.67° C | 39% | 1016.5 hPa | 0 mm | - | - | - |
| 1778079305 | 11.11° C | 37% | 1016.2 hPa | 0 mm | - | - | - |
| 1778078706 | 11.11° C | 36% | 1016.2 hPa | 0 mm | - | - | - |
| 1778078406 | 11.11° C | 37% | 1016.3 hPa | 0 mm | - | - | - |
| 1778078106 | 11.11° C | 36% | 1016.3 hPa | 0 mm | - | - | - |
| 1778075706 | 10° C | 53% | 1016.6 hPa | 0 mm | - | - | - |
| 1778075406 | 9.44° C | 58% | 1016.7 hPa | 0 mm | - | - | - |
| 1778073306 | 8.89° C | 67% | 1016.7 hPa | 0 mm | - | - | - |
| 1778073006 | 8.89° C | 68% | 1016.7 hPa | 0 mm | - | - | - |
| 1778072706 | 8.33° C | 68% | 1016.6 hPa | 0 mm | - | - | - |
| 1778072406 | 8.33° C | 67% | 1016.4 hPa | 0 mm | - | - | - |
| 1778070306 | 8.33° C | 70% | 1016 hPa | 0 mm | - | - | - |
| 1778070006 | 8.33° C | 70% | 1016 hPa | 0 mm | - | - | - |
| 1778069706 | 8.33° C | 71% | 1015.9 hPa | 0 mm | - | - | - |
| 1778067006 | 8.89° C | 70% | 1015.2 hPa | 0 mm | - | - | - |
| 1778064306 | 9.44° C | 74% | 1014.3 hPa | 0 mm | - | - | - |
| 1778064006 | 9.44° C | 75% | 1014.2 hPa | 0 mm | - | - | - |
| 1778062205 | 8.89° C | 82% | 1013.7 hPa | 0 mm | - | - | - |
| 1778061606 | 8.89° C | 84% | 1013.4 hPa | 0 mm | - | - | - |
| 1778061306 | - | - | - | 0 mm | - | - | - |
| 1778061006 | 8.89° C | 86% | 1013.4 hPa | 0 mm | - | - | - |
| 1778059205 | 8.33° C | 85% | 1012.9 hPa | 0 mm | - | - | - |
| 1778058906 | 8.89° C | 83% | 1012.5 hPa | 0 mm | - | - | - |
* Rain latest hour (hover to see other rain measurements)
** Current wind speed in m/s (hover to see current wind gust speed)